sensor_id;sensor_type;location;lat;lon;timestamp;temperature;humidity
8896;DHT22;4484;48.928;10.066;2023-06-10T00:02:06;15.00;99.90
8896;DHT22;4484;48.928;10.066;2023-06-10T00:04:34;14.90;99.90
8896;DHT22;4484;48.928;10.066;2023-06-10T00:07:06;14.80;99.90
8896;DHT22;4484;48.928;10.066;2023-06-10T00:09:36;14.70;99.90
8896;DHT22;4484;48.928;10.066;2023-06-10T00:12:07;14.60;99.90
8896;DHT22;4484;48.928;10.066;2023-06-10T00:14:38;14.60;99.90
8896;DHT22;4484;48.928;10.066;2023-06-10T00:17:06;14.60;99.90
8896;DHT22;4484;48.928;10.066;2023-06-10T00:19:36;14.50;99.90
8896;DHT22;4484;48.928;10.066;2023-06-10T00:22:04;14.50;99.90
8896;DHT22;4484;48.928;10.066;2023-06-10T00:24:31;14.40;99.90
8896;DHT22;4484;48.928;10.066;2023-06-10T00:26:58;14.40;99.90
8896;DHT22;4484;48.928;10.066;2023-06-10T00:29:25;14.40;99.90
8896;DHT22;4484;48.928;10.066;2023-06-10T00:31:51;14.40;99.90
8896;DHT22;4484;48.928;10.066;2023-06-10T00:34:20;14.40;99.90
8896;DHT22;4484;48.928;10.066;2023-06-10T00:36:47;14.40;99.90
8896;DHT22;4484;48.928;10.066;2023-06-10T00:39:14;14.30;99.90
8896;DHT22;4484;48.928;10.066;2023-06-10T00:41:41;14.30;99.90
8896;DHT22;4484;48.928;10.066;2023-06-10T00:44:07;14.20;99.90
8896;DHT22;4484;48.928;10.066;2023-06-10T00:46:35;14.20;99.90
8896;DHT22;4484;48.928;10.066;2023-06-10T00:49:04;14.20;99.90
8896;DHT22;4484;48.928;10.066;2023-06-10T00:51:32;14.10;99.90
8896;DHT22;4484;48.928;10.066;2023-06-10T00:53:59;14.10;99.90
8896;DHT22;4484;48.928;10.066;2023-06-10T00:56:25;14.10;99.90
8896;DHT22;4484;48.928;10.066;2023-06-10T00:58:54;14.10;99.90
8896;DHT22;4484;48.928;10.066;2023-06-10T01:01:21;14.10;99.90
8896;DHT22;4484;48.928;10.066;2023-06-10T01:03:48;14.10;99.90
8896;DHT22;4484;48.928;10.066;2023-06-10T01:08:58;14.10;99.90
8896;DHT22;4484;48.928;10.066;2023-06-10T01:11:44;14.10;99.90
8896;DHT22;4484;48.928;10.066;2023-06-10T01:14:13;14.10;99.90
8896;DHT22;4484;48.928;10.066;2023-06-10T01:16:41;14.00;99.90
8896;DHT22;4484;48.928;10.066;2023-06-10T01:19:09;13.90;99.90
8896;DHT22;4484;48.928;10.066;2023-06-10T01:21:38;13.90;99.90
8896;DHT22;4484;48.928;10.066;2023-06-10T01:24:06;13.90;99.90
8896;DHT22;4484;48.928;10.066;2023-06-10T01:26:35;13.80;99.90
8896;DHT22;4484;48.928;10.066;2023-06-10T01:29:18;13.70;99.90
8896;DHT22;4484;48.928;10.066;2023-06-10T01:31:54;13.60;99.90
8896;DHT22;4484;48.928;10.066;2023-06-10T01:34:23;13.60;99.90
8896;DHT22;4484;48.928;10.066;2023-06-10T01:36:52;13.50;99.90
8896;DHT22;4484;48.928;10.066;2023-06-10T01:39:23;13.40;99.90
8896;DHT22;4484;48.928;10.066;2023-06-10T01:41:52;13.30;99.90
8896;DHT22;4484;48.928;10.066;2023-06-10T01:44:21;13.30;99.90
8896;DHT22;4484;48.928;10.066;2023-06-10T01:46:48;13.20;99.90
8896;DHT22;4484;48.928;10.066;2023-06-10T01:49:16;13.20;99.90
8896;DHT22;4484;48.928;10.066;2023-06-10T01:51:43;13.10;99.90
8896;DHT22;4484;48.928;10.066;2023-06-10T01:54:10;13.00;99.90
8896;DHT22;4484;48.928;10.066;2023-06-10T01:56:37;13.00;99.90
8896;DHT22;4484;48.928;10.066;2023-06-10T01:59:03;13.00;99.90
8896;DHT22;4484;48.928;10.066;2023-06-10T02:01:31;12.90;99.90
8896;DHT22;4484;48.928;10.066;2023-06-10T02:03:58;12.80;99.90
8896;DHT22;4484;48.928;10.066;2023-06-10T02:06:26;12.80;99.90
8896;DHT22;4484;48.928;10.066;2023-06-10T02:08:52;12.70;99.90
8896;DHT22;4484;48.928;10.066;2023-06-10T02:11:20;12.70;99.90
8896;DHT22;4484;48.928;10.066;2023-06-10T02:13:47;12.80;99.90
8896;DHT22;4484;48.928;10.066;2023-06-10T02:16:13;12.80;99.90
8896;DHT22;4484;48.928;10.066;2023-06-10T02:18:43;12.80;99.90
8896;DHT22;4484;48.928;10.066;2023-06-10T02:21:10;12.80;99.90
8896;DHT22;4484;48.928;10.066;2023-06-10T02:23:37;12.80;99.90
8896;DHT22;4484;48.928;10.066;2023-06-10T02:26:04;12.80;99.90
8896;DHT22;4484;48.928;10.066;2023-06-10T02:28:31;12.70;99.90
8896;DHT22;4484;48.928;10.066;2023-06-10T02:30:58;12.80;99.90
8896;DHT22;4484;48.928;10.066;2023-06-10T02:33:26;12.70;99.90
8896;DHT22;4484;48.928;10.066;2023-06-10T02:35:54;12.60;99.90
8896;DHT22;4484;48.928;10.066;2023-06-10T02:38:22;12.60;99.90
8896;DHT22;4484;48.928;10.066;2023-06-10T02:40:49;12.60;99.90
8896;DHT22;4484;48.928;10.066;2023-06-10T02:43:16;12.60;99.90
8896;DHT22;4484;48.928;10.066;2023-06-10T02:45:43;12.50;99.90
8896;DHT22;4484;48.928;10.066;2023-06-10T02:48:11;12.50;99.90
8896;DHT22;4484;48.928;10.066;2023-06-10T02:50:38;12.50;99.90
8896;DHT22;4484;48.928;10.066;2023-06-10T02:53:27;12.50;99.90
8896;DHT22;4484;48.928;10.066;2023-06-10T02:56:01;12.50;99.90
8896;DHT22;4484;48.928;10.066;2023-06-10T02:58:28;12.50;99.90
8896;DHT22;4484;48.928;10.066;2023-06-10T03:00:55;12.50;99.90
8896;DHT22;4484;48.928;10.066;2023-06-10T03:03:22;12.50;99.90
8896;DHT22;4484;48.928;10.066;2023-06-10T03:06:01;12.40;99.90
8896;DHT22;4484;48.928;10.066;2023-06-10T03:08:29;12.50;99.90
8896;DHT22;4484;48.928;10.066;2023-06-10T03:10:59;12.50;99.90
8896;DHT22;4484;48.928;10.066;2023-06-10T03:13:27;12.40;99.90
8896;DHT22;4484;48.928;10.066;2023-06-10T03:15:54;12.40;99.90
8896;DHT22;4484;48.928;10.066;2023-06-10T03:18:26;12.40;99.90
8896;DHT22;4484;48.928;10.066;2023-06-10T03:20:54;12.40;99.90
8896;DHT22;4484;48.928;10.066;2023-06-10T03:23:23;12.30;99.90
8896;DHT22;4484;48.928;10.066;2023-06-10T03:25:50;12.30;99.90
8896;DHT22;4484;48.928;10.066;2023-06-10T03:28:19;12.30;99.90
8896;DHT22;4484;48.928;10.066;2023-06-10T03:30:46;12.30;99.90
8896;DHT22;4484;48.928;10.066;2023-06-10T03:33:13;12.20;99.90
8896;DHT22;4484;48.928;10.066;2023-06-10T03:35:41;12.20;99.90
8896;DHT22;4484;48.928;10.066;2023-06-10T03:38:08;12.20;99.90
8896;DHT22;4484;48.928;10.066;2023-06-10T03:40:35;12.20;99.90
8896;DHT22;4484;48.928;10.066;2023-06-10T03:43:03;12.20;99.90
8896;DHT22;4484;48.928;10.066;2023-06-10T03:45:30;12.20;99.90
8896;DHT22;4484;48.928;10.066;2023-06-10T03:47:58;12.30;99.90
8896;DHT22;4484;48.928;10.066;2023-06-10T03:50:32;12.30;99.90
8896;DHT22;4484;48.928;10.066;2023-06-10T03:52:59;12.30;99.90
8896;DHT22;4484;48.928;10.066;2023-06-10T03:55:26;12.30;99.90
8896;DHT22;4484;48.928;10.066;2023-06-10T03:57:54;12.30;99.90
8896;DHT22;4484;48.928;10.066;2023-06-10T04:00:21;12.30;99.90
8896;DHT22;4484;48.928;10.066;2023-06-10T04:02:48;12.30;99.90
8896;DHT22;4484;48.928;10.066;2023-06-10T04:05:28;12.30;99.90
8896;DHT22;4484;48.928;10.066;2023-06-10T04:07:56;12.30;99.90
8896;DHT22;4484;48.928;10.066;2023-06-10T04:10:23;12.30;99.90
8896;DHT22;4484;48.928;10.066;2023-06-10T04:12:50;12.30;99.90
8896;DHT22;4484;48.928;10.066;2023-06-10T04:15:18;12.30;99.90
8896;DHT22;4484;48.928;10.066;2023-06-10T04:17:45;12.40;99.90
8896;DHT22;4484;48.928;10.066;2023-06-10T04:20:12;12.40;99.90
8896;DHT22;4484;48.928;10.066;2023-06-10T04:22:43;12.50;99.90
8896;DHT22;4484;48.928;10.066;2023-06-10T04:25:11;12.60;99.90
8896;DHT22;4484;48.928;10.066;2023-06-10T04:27:39;12.60;99.90
8896;DHT22;4484;48.928;10.066;2023-06-10T04:30:07;12.70;99.90
8896;DHT22;4484;48.928;10.066;2023-06-10T04:32:36;12.80;99.90
8896;DHT22;4484;48.928;10.066;2023-06-10T04:35:05;12.80;99.90
8896;DHT22;4484;48.928;10.066;2023-06-10T04:37:32;12.90;99.90
8896;DHT22;4484;48.928;10.066;2023-06-10T04:39:59;13.00;99.90
8896;DHT22;4484;48.928;10.066;2023-06-10T04:42:28;13.00;99.90
8896;DHT22;4484;48.928;10.066;2023-06-10T04:44:55;13.10;99.90
8896;DHT22;4484;48.928;10.066;2023-06-10T04:47:22;13.20;99.90
8896;DHT22;4484;48.928;10.066;2023-06-10T04:49:49;13.40;99.90
8896;DHT22;4484;48.928;10.066;2023-06-10T04:52:16;13.50;99.90
8896;DHT22;4484;48.928;10.066;2023-06-10T04:54:45;13.50;99.90
8896;DHT22;4484;48.928;10.066;2023-06-10T04:57:12;13.60;99.90
8896;DHT22;4484;48.928;10.066;2023-06-10T04:59:38;13.70;99.90
8896;DHT22;4484;48.928;10.066;2023-06-10T05:02:05;13.80;99.90
8896;DHT22;4484;48.928;10.066;2023-06-10T05:04:33;13.90;99.90
8896;DHT22;4484;48.928;10.066;2023-06-10T05:06:59;14.00;99.90
8896;DHT22;4484;48.928;10.066;2023-06-10T05:09:26;14.00;99.90
8896;DHT22;4484;48.928;10.066;2023-06-10T05:11:54;14.10;99.90
8896;DHT22;4484;48.928;10.066;2023-06-10T05:14:21;14.20;99.90
8896;DHT22;4484;48.928;10.066;2023-06-10T05:16:48;14.30;99.90
8896;DHT22;4484;48.928;10.066;2023-06-10T05:19:15;14.30;99.90
8896;DHT22;4484;48.928;10.066;2023-06-10T05:21:45;14.40;99.90
8896;DHT22;4484;48.928;10.066;2023-06-10T05:24:12;14.50;99.90
8896;DHT22;4484;48.928;10.066;2023-06-10T05:26:39;14.60;99.90
8896;DHT22;4484;48.928;10.066;2023-06-10T05:29:08;14.70;99.90
8896;DHT22;4484;48.928;10.066;2023-06-10T05:31:35;14.90;99.90
8896;DHT22;4484;48.928;10.066;2023-06-10T05:34:02;15.00;99.90
8896;DHT22;4484;48.928;10.066;2023-06-10T05:36:29;15.20;99.90
8896;DHT22;4484;48.928;10.066;2023-06-10T05:38:56;15.30;99.90
8896;DHT22;4484;48.928;10.066;2023-06-10T05:41:23;15.40;99.90
8896;DHT22;4484;48.928;10.066;2023-06-10T05:43:50;15.60;99.90
8896;DHT22;4484;48.928;10.066;2023-06-10T05:46:17;15.80;99.90
8896;DHT22;4484;48.928;10.066;2023-06-10T05:48:43;16.00;99.90
8896;DHT22;4484;48.928;10.066;2023-06-10T05:51:10;16.20;99.90
8896;DHT22;4484;48.928;10.066;2023-06-10T05:53:37;16.40;99.90
8896;DHT22;4484;48.928;10.066;2023-06-10T05:56:05;16.50;99.90
8896;DHT22;4484;48.928;10.066;2023-06-10T05:58:32;16.70;99.90
8896;DHT22;4484;48.928;10.066;2023-06-10T06:00:58;16.90;99.90
8896;DHT22;4484;48.928;10.066;2023-06-10T06:03:25;17.00;99.90
8896;DHT22;4484;48.928;10.066;2023-06-10T06:05:54;17.30;99.90
8896;DHT22;4484;48.928;10.066;2023-06-10T06:08:21;17.50;99.90
8896;DHT22;4484;48.928;10.066;2023-06-10T06:10:49;17.60;99.90
8896;DHT22;4484;48.928;10.066;2023-06-10T06:13:16;17.80;99.90
8896;DHT22;4484;48.928;10.066;2023-06-10T06:15:43;18.10;99.90
8896;DHT22;4484;48.928;10.066;2023-06-10T06:18:10;18.30;99.90
8896;DHT22;4484;48.928;10.066;2023-06-10T06:20:37;18.40;99.90
8896;DHT22;4484;48.928;10.066;2023-06-10T06:23:04;18.60;99.90
8896;DHT22;4484;48.928;10.066;2023-06-10T06:25:31;18.90;99.90
8896;DHT22;4484;48.928;10.066;2023-06-10T06:27:57;19.10;99.90
8896;DHT22;4484;48.928;10.066;2023-06-10T06:30:24;19.20;99.90
8896;DHT22;4484;48.928;10.066;2023-06-10T06:32:52;19.40;99.90
8896;DHT22;4484;48.928;10.066;2023-06-10T06:35:19;19.50;99.90
8896;DHT22;4484;48.928;10.066;2023-06-10T06:37:46;19.70;99.90
8896;DHT22;4484;48.928;10.066;2023-06-10T06:40:19;20.00;99.90
8896;DHT22;4484;48.928;10.066;2023-06-10T06:42:46;20.10;99.90
8896;DHT22;4484;48.928;10.066;2023-06-10T06:45:22;20.30;99.90
8896;DHT22;4484;48.928;10.066;2023-06-10T06:47:49;20.50;99.90
8896;DHT22;4484;48.928;10.066;2023-06-10T06:50:16;20.50;99.90
8896;DHT22;4484;48.928;10.066;2023-06-10T06:52:43;20.70;99.90
8896;DHT22;4484;48.928;10.066;2023-06-10T06:55:10;21.00;99.90
8896;DHT22;4484;48.928;10.066;2023-06-10T06:57:38;21.20;99.90
8896;DHT22;4484;48.928;10.066;2023-06-10T07:00:05;21.40;99.90
8896;DHT22;4484;48.928;10.066;2023-06-10T07:02:32;21.50;99.90
8896;DHT22;4484;48.928;10.066;2023-06-10T07:04:59;21.70;99.90
8896;DHT22;4484;48.928;10.066;2023-06-10T07:07:27;22.00;99.90
8896;DHT22;4484;48.928;10.066;2023-06-10T07:09:54;22.30;99.90
8896;DHT22;4484;48.928;10.066;2023-06-10T07:12:21;22.20;99.90
8896;DHT22;4484;48.928;10.066;2023-06-10T07:14:50;22.40;99.90
8896;DHT22;4484;48.928;10.066;2023-06-10T07:17:18;22.70;99.90
8896;DHT22;4484;48.928;10.066;2023-06-10T07:19:46;23.20;99.90
8896;DHT22;4484;48.928;10.066;2023-06-10T07:22:13;23.60;99.90
8896;DHT22;4484;48.928;10.066;2023-06-10T07:24:40;23.80;99.90
8896;DHT22;4484;48.928;10.066;2023-06-10T07:27:08;23.90;99.90
8896;DHT22;4484;48.928;10.066;2023-06-10T07:29:35;24.20;99.90
8896;DHT22;4484;48.928;10.066;2023-06-10T07:32:05;24.40;99.90
8896;DHT22;4484;48.928;10.066;2023-06-10T07:34:32;24.50;99.90
8896;DHT22;4484;48.928;10.066;2023-06-10T07:36:59;24.60;99.90
8896;DHT22;4484;48.928;10.066;2023-06-10T07:39:26;24.80;99.90
8896;DHT22;4484;48.928;10.066;2023-06-10T07:41:53;25.10;99.90
8896;DHT22;4484;48.928;10.066;2023-06-10T07:44:20;25.20;99.90
8896;DHT22;4484;48.928;10.066;2023-06-10T07:46:47;25.30;99.90
8896;DHT22;4484;48.928;10.066;2023-06-10T07:49:14;25.20;99.90
8896;DHT22;4484;48.928;10.066;2023-06-10T07:51:41;25.50;99.90
8896;DHT22;4484;48.928;10.066;2023-06-10T07:54:08;25.80;99.80
8896;DHT22;4484;48.928;10.066;2023-06-10T07:56:35;25.80;99.30
8896;DHT22;4484;48.928;10.066;2023-06-10T07:59:02;25.80;97.90
8896;DHT22;4484;48.928;10.066;2023-06-10T08:01:29;25.60;98.10
8896;DHT22;4484;48.928;10.066;2023-06-10T08:03:57;25.60;97.80
8896;DHT22;4484;48.928;10.066;2023-06-10T08:06:25;25.60;97.70
8896;DHT22;4484;48.928;10.066;2023-06-10T08:08:52;25.60;98.00
8896;DHT22;4484;48.928;10.066;2023-06-10T08:11:18;25.70;97.70
8896;DHT22;4484;48.928;10.066;2023-06-10T08:13:45;26.00;97.50
8896;DHT22;4484;48.928;10.066;2023-06-10T08:16:12;26.30;98.20
8896;DHT22;4484;48.928;10.066;2023-06-10T08:18:39;26.80;97.40
8896;DHT22;4484;48.928;10.066;2023-06-10T08:21:06;26.80;95.00
8896;DHT22;4484;48.928;10.066;2023-06-10T08:23:33;26.80;95.60
8896;DHT22;4484;48.928;10.066;2023-06-10T08:26:00;26.90;96.00
8896;DHT22;4484;48.928;10.066;2023-06-10T08:28:27;27.20;96.10
8896;DHT22;4484;48.928;10.066;2023-06-10T08:30:54;27.50;94.10
8896;DHT22;4484;48.928;10.066;2023-06-10T08:33:23;27.70;92.80
8896;DHT22;4484;48.928;10.066;2023-06-10T08:35:50;27.70;94.00
8896;DHT22;4484;48.928;10.066;2023-06-10T08:38:17;28.00;94.70
8896;DHT22;4484;48.928;10.066;2023-06-10T08:40:43;28.50;94.10
8896;DHT22;4484;48.928;10.066;2023-06-10T08:43:24;29.10;91.40
8896;DHT22;4484;48.928;10.066;2023-06-10T08:46:00;29.30;89.80
8896;DHT22;4484;48.928;10.066;2023-06-10T08:48:29;29.70;91.60
8896;DHT22;4484;48.928;10.066;2023-06-10T08:50:59;30.10;86.30
8896;DHT22;4484;48.928;10.066;2023-06-10T08:53:28;30.40;84.40
8896;DHT22;4484;48.928;10.066;2023-06-10T08:56:00;30.50;80.90
8896;DHT22;4484;48.928;10.066;2023-06-10T08:58:28;30.40;81.10
8896;DHT22;4484;48.928;10.066;2023-06-10T09:00:56;30.20;77.50
8896;DHT22;4484;48.928;10.066;2023-06-10T09:03:23;30.10;83.60
8896;DHT22;4484;48.928;10.066;2023-06-10T09:05:51;30.30;83.00
8896;DHT22;4484;48.928;10.066;2023-06-10T09:08:18;30.70;81.80
8896;DHT22;4484;48.928;10.066;2023-06-10T09:10:45;30.80;78.70
8896;DHT22;4484;48.928;10.066;2023-06-10T09:13:12;31.00;77.30
8896;DHT22;4484;48.928;10.066;2023-06-10T09:15:42;31.00;77.60
8896;DHT22;4484;48.928;10.066;2023-06-10T09:18:09;30.90;75.40
8896;DHT22;4484;48.928;10.066;2023-06-10T09:20:36;30.70;76.60
8896;DHT22;4484;48.928;10.066;2023-06-10T09:23:03;30.60;75.40
8896;DHT22;4484;48.928;10.066;2023-06-10T09:25:37;30.60;72.60
8896;DHT22;4484;48.928;10.066;2023-06-10T09:28:06;30.80;78.00
8896;DHT22;4484;48.928;10.066;2023-06-10T09:30:39;31.10;76.50
8896;DHT22;4484;48.928;10.066;2023-06-10T09:33:13;31.80;78.70
8896;DHT22;4484;48.928;10.066;2023-06-10T09:35:46;32.20;72.70
8896;DHT22;4484;48.928;10.066;2023-06-10T09:38:19;32.60;70.20
8896;DHT22;4484;48.928;10.066;2023-06-10T09:40:53;32.40;65.80
8896;DHT22;4484;48.928;10.066;2023-06-10T09:43:21;31.90;65.20
8896;DHT22;4484;48.928;10.066;2023-06-10T09:45:51;31.10;69.20
8896;DHT22;4484;48.928;10.066;2023-06-10T09:48:22;31.20;71.80
8896;DHT22;4484;48.928;10.066;2023-06-10T09:50:50;31.60;69.60
8896;DHT22;4484;48.928;10.066;2023-06-10T09:53:17;32.10;68.70
8896;DHT22;4484;48.928;10.066;2023-06-10T09:55:45;32.20;67.40
8896;DHT22;4484;48.928;10.066;2023-06-10T09:58:11;32.30;68.50
8896;DHT22;4484;48.928;10.066;2023-06-10T10:00:38;32.20;71.00
8896;DHT22;4484;48.928;10.066;2023-06-10T10:03:05;32.70;72.00
8896;DHT22;4484;48.928;10.066;2023-06-10T10:05:33;33.10;68.00
8896;DHT22;4484;48.928;10.066;2023-06-10T10:08:00;32.70;62.50
8896;DHT22;4484;48.928;10.066;2023-06-10T10:10:28;32.20;63.10
8896;DHT22;4484;48.928;10.066;2023-06-10T10:12:55;31.50;63.70
8896;DHT22;4484;48.928;10.066;2023-06-10T10:15:25;31.40;64.70
8896;DHT22;4484;48.928;10.066;2023-06-10T10:18:00;31.30;68.60
8896;DHT22;4484;48.928;10.066;2023-06-10T10:20:31;31.80;64.10
8896;DHT22;4484;48.928;10.066;2023-06-10T10:22:59;32.30;66.60
8896;DHT22;4484;48.928;10.066;2023-06-10T10:25:34;32.70;61.40
8896;DHT22;4484;48.928;10.066;2023-06-10T10:28:11;33.10;63.20
8896;DHT22;4484;48.928;10.066;2023-06-10T10:30:47;33.30;61.70
8896;DHT22;4484;48.928;10.066;2023-06-10T10:36:24;33.40;59.80
8896;DHT22;4484;48.928;10.066;2023-06-10T10:38:52;33.50;57.10
8896;DHT22;4484;48.928;10.066;2023-06-10T10:41:19;33.50;58.20
8896;DHT22;4484;48.928;10.066;2023-06-10T10:43:48;32.90;57.50
8896;DHT22;4484;48.928;10.066;2023-06-10T10:46:17;32.20;58.60
8896;DHT22;4484;48.928;10.066;2023-06-10T10:48:44;31.10;60.30
8896;DHT22;4484;48.928;10.066;2023-06-10T10:51:11;30.80;64.80
8896;DHT22;4484;48.928;10.066;2023-06-10T10:53:39;31.00;62.90
8896;DHT22;4484;48.928;10.066;2023-06-10T10:56:09;31.20;64.10
8896;DHT22;4484;48.928;10.066;2023-06-10T10:58:40;32.00;64.80
8896;DHT22;4484;48.928;10.066;2023-06-10T11:01:14;32.10;59.20
8896;DHT22;4484;48.928;10.066;2023-06-10T11:03:43;31.60;59.50
8896;DHT22;4484;48.928;10.066;2023-06-10T11:06:15;31.30;63.00
8896;DHT22;4484;48.928;10.066;2023-06-10T11:11:23;30.90;63.40
8896;DHT22;4484;48.928;10.066;2023-06-10T11:16:39;30.10;63.30
8896;DHT22;4484;48.928;10.066;2023-06-10T11:19:07;29.50;66.10
8896;DHT22;4484;48.928;10.066;2023-06-10T11:21:57;29.40;68.90
8896;DHT22;4484;48.928;10.066;2023-06-10T11:24:25;29.10;68.00
8896;DHT22;4484;48.928;10.066;2023-06-10T11:26:52;28.70;67.70
8896;DHT22;4484;48.928;10.066;2023-06-10T11:29:19;28.90;69.10
8896;DHT22;4484;48.928;10.066;2023-06-10T11:31:51;28.80;68.60
8896;DHT22;4484;48.928;10.066;2023-06-10T11:34:23;29.00;70.20
8896;DHT22;4484;48.928;10.066;2023-06-10T11:36:51;29.60;71.70
8896;DHT22;4484;48.928;10.066;2023-06-10T11:39:20;30.50;65.70
8896;DHT22;4484;48.928;10.066;2023-06-10T11:41:47;30.90;64.40
8896;DHT22;4484;48.928;10.066;2023-06-10T11:44:15;31.50;67.60
8896;DHT22;4484;48.928;10.066;2023-06-10T11:46:48;31.50;62.60
8896;DHT22;4484;48.928;10.066;2023-06-10T11:49:15;31.70;66.40
8896;DHT22;4484;48.928;10.066;2023-06-10T11:51:42;31.50;60.80
8896;DHT22;4484;48.928;10.066;2023-06-10T11:54:16;31.20;61.80
8896;DHT22;4484;48.928;10.066;2023-06-10T11:56:43;31.50;68.80
8896;DHT22;4484;48.928;10.066;2023-06-10T11:59:10;32.10;64.60
8896;DHT22;4484;48.928;10.066;2023-06-10T12:01:42;32.00;60.70
8896;DHT22;4484;48.928;10.066;2023-06-10T12:04:13;32.00;61.40
8896;DHT22;4484;48.928;10.066;2023-06-10T12:06:51;32.00;61.00
8896;DHT22;4484;48.928;10.066;2023-06-10T12:09:23;32.40;65.20
8896;DHT22;4484;48.928;10.066;2023-06-10T12:12:03;32.60;60.10
8896;DHT22;4484;48.928;10.066;2023-06-10T12:14:49;32.40;61.10
8896;DHT22;4484;48.928;10.066;2023-06-10T12:17:17;32.70;63.00
8896;DHT22;4484;48.928;10.066;2023-06-10T12:19:44;32.60;59.80
8896;DHT22;4484;48.928;10.066;2023-06-10T12:22:11;31.90;59.50
8896;DHT22;4484;48.928;10.066;2023-06-10T12:24:45;31.80;61.20
8896;DHT22;4484;48.928;10.066;2023-06-10T12:27:12;31.70;61.50
8896;DHT22;4484;48.928;10.066;2023-06-10T12:29:40;31.40;59.90
8896;DHT22;4484;48.928;10.066;2023-06-10T12:32:17;31.40;60.70
8896;DHT22;4484;48.928;10.066;2023-06-10T12:34:45;31.30;64.00
8896;DHT22;4484;48.928;10.066;2023-06-10T12:37:12;31.10;64.70
8896;DHT22;4484;48.928;10.066;2023-06-10T12:39:51;30.90;62.40
8896;DHT22;4484;48.928;10.066;2023-06-10T12:42:22;30.80;64.40
8896;DHT22;4484;48.928;10.066;2023-06-10T12:44:53;31.20;65.40
8896;DHT22;4484;48.928;10.066;2023-06-10T12:47:32;31.60;62.20
8896;DHT22;4484;48.928;10.066;2023-06-10T12:50:02;31.30;59.70
8896;DHT22;4484;48.928;10.066;2023-06-10T12:52:30;31.20;62.70
8896;DHT22;4484;48.928;10.066;2023-06-10T12:54:57;31.20;60.10
8896;DHT22;4484;48.928;10.066;2023-06-10T12:57:24;31.00;61.80
8896;DHT22;4484;48.928;10.066;2023-06-10T12:59:51;31.00;61.20
8896;DHT22;4484;48.928;10.066;2023-06-10T13:02:23;31.00;62.40
8896;DHT22;4484;48.928;10.066;2023-06-10T13:04:51;31.30;64.50
8896;DHT22;4484;48.928;10.066;2023-06-10T13:07:18;31.60;64.10
8896;DHT22;4484;48.928;10.066;2023-06-10T13:09:45;31.30;61.50
8896;DHT22;4484;48.928;10.066;2023-06-10T13:12:15;31.40;63.70
8896;DHT22;4484;48.928;10.066;2023-06-10T13:14:53;31.50;63.00
8896;DHT22;4484;48.928;10.066;2023-06-10T13:17:21;31.20;61.40
8896;DHT22;4484;48.928;10.066;2023-06-10T13:19:49;31.10;64.90
8896;DHT22;4484;48.928;10.066;2023-06-10T13:22:16;31.50;66.90
8896;DHT22;4484;48.928;10.066;2023-06-10T13:24:43;32.00;65.10
8896;DHT22;4484;48.928;10.066;2023-06-10T13:27:10;32.30;63.70
8896;DHT22;4484;48.928;10.066;2023-06-10T13:29:37;32.40;62.10
8896;DHT22;4484;48.928;10.066;2023-06-10T13:32:04;32.30;60.90
8896;DHT22;4484;48.928;10.066;2023-06-10T13:34:31;32.10;59.00
8896;DHT22;4484;48.928;10.066;2023-06-10T13:36:58;31.50;59.90
8896;DHT22;4484;48.928;10.066;2023-06-10T13:39:25;31.40;60.10
8896;DHT22;4484;48.928;10.066;2023-06-10T13:41:52;31.40;59.10
8896;DHT22;4484;48.928;10.066;2023-06-10T13:44:19;31.60;61.80
8896;DHT22;4484;48.928;10.066;2023-06-10T13:46:46;31.90;61.90
8896;DHT22;4484;48.928;10.066;2023-06-10T13:49:16;32.20;60.80
8896;DHT22;4484;48.928;10.066;2023-06-10T13:51:43;32.30;59.20
8896;DHT22;4484;48.928;10.066;2023-06-10T13:54:10;32.10;59.40
8896;DHT22;4484;48.928;10.066;2023-06-10T13:56:37;32.00;61.00
8896;DHT22;4484;48.928;10.066;2023-06-10T13:59:05;32.20;60.90
8896;DHT22;4484;48.928;10.066;2023-06-10T14:01:32;32.30;59.70
8896;DHT22;4484;48.928;10.066;2023-06-10T14:04:00;32.50;60.00
8896;DHT22;4484;48.928;10.066;2023-06-10T14:06:28;32.70;59.60
8896;DHT22;4484;48.928;10.066;2023-06-10T14:08:55;32.80;58.90
8896;DHT22;4484;48.928;10.066;2023-06-10T14:11:22;32.60;56.80
8896;DHT22;4484;48.928;10.066;2023-06-10T14:13:49;32.60;58.20
8896;DHT22;4484;48.928;10.066;2023-06-10T14:16:16;32.30;58.90
8896;DHT22;4484;48.928;10.066;2023-06-10T14:18:43;32.40;61.00
8896;DHT22;4484;48.928;10.066;2023-06-10T14:21:10;32.50;57.90
8896;DHT22;4484;48.928;10.066;2023-06-10T14:23:37;32.00;58.10
8896;DHT22;4484;48.928;10.066;2023-06-10T14:26:04;30.90;58.60
8896;DHT22;4484;48.928;10.066;2023-06-10T14:28:33;30.20;60.30
8896;DHT22;4484;48.928;10.066;2023-06-10T14:31:00;29.90;61.30
8896;DHT22;4484;48.928;10.066;2023-06-10T14:33:26;29.90;61.70
8896;DHT22;4484;48.928;10.066;2023-06-10T14:35:54;29.90;62.10
8896;DHT22;4484;48.928;10.066;2023-06-10T14:38:21;29.80;61.00
8896;DHT22;4484;48.928;10.066;2023-06-10T14:40:47;29.70;60.30
8896;DHT22;4484;48.928;10.066;2023-06-10T14:43:14;29.70;60.60
8896;DHT22;4484;48.928;10.066;2023-06-10T14:45:41;29.70;60.10
8896;DHT22;4484;48.928;10.066;2023-06-10T14:48:09;29.70;61.20
8896;DHT22;4484;48.928;10.066;2023-06-10T14:50:36;29.60;62.80
8896;DHT22;4484;48.928;10.066;2023-06-10T14:53:03;29.80;62.90
8896;DHT22;4484;48.928;10.066;2023-06-10T14:55:30;30.00;65.00
8896;DHT22;4484;48.928;10.066;2023-06-10T14:57:57;29.80;61.00
8896;DHT22;4484;48.928;10.066;2023-06-10T15:00:24;29.50;61.40
8896;DHT22;4484;48.928;10.066;2023-06-10T15:02:52;29.30;62.50
8896;DHT22;4484;48.928;10.066;2023-06-10T15:05:20;29.20;62.40
8896;DHT22;4484;48.928;10.066;2023-06-10T15:07:47;29.10;65.70
8896;DHT22;4484;48.928;10.066;2023-06-10T15:10:14;29.30;66.10
8896;DHT22;4484;48.928;10.066;2023-06-10T15:12:43;29.30;64.50
8896;DHT22;4484;48.928;10.066;2023-06-10T15:15:10;29.10;64.00
8896;DHT22;4484;48.928;10.066;2023-06-10T15:17:37;28.70;64.10
8896;DHT22;4484;48.928;10.066;2023-06-10T15:20:05;28.50;65.50
8896;DHT22;4484;48.928;10.066;2023-06-10T15:22:32;28.40;65.20
8896;DHT22;4484;48.928;10.066;2023-06-10T15:25:02;28.40;65.30
8896;DHT22;4484;48.928;10.066;2023-06-10T15:27:49;28.60;67.60
8896;DHT22;4484;48.928;10.066;2023-06-10T15:30:16;28.70;65.20
8896;DHT22;4484;48.928;10.066;2023-06-10T15:32:43;28.70;64.50
8896;DHT22;4484;48.928;10.066;2023-06-10T15:35:11;28.70;66.50
8896;DHT22;4484;48.928;10.066;2023-06-10T15:37:39;28.50;65.20
8896;DHT22;4484;48.928;10.066;2023-06-10T15:40:07;28.40;66.60
8896;DHT22;4484;48.928;10.066;2023-06-10T15:42:35;28.30;66.10
8896;DHT22;4484;48.928;10.066;2023-06-10T15:45:03;28.10;66.70
8896;DHT22;4484;48.928;10.066;2023-06-10T15:47:31;28.10;65.80
8896;DHT22;4484;48.928;10.066;2023-06-10T15:49:59;28.10;68.00
8896;DHT22;4484;48.928;10.066;2023-06-10T15:52:31;28.10;65.00
8896;DHT22;4484;48.928;10.066;2023-06-10T15:55:00;28.10;66.10
8896;DHT22;4484;48.928;10.066;2023-06-10T15:57:28;28.20;64.00
8896;DHT22;4484;48.928;10.066;2023-06-10T15:59:56;28.30;66.20
8896;DHT22;4484;48.928;10.066;2023-06-10T16:02:23;28.20;64.20
8896;DHT22;4484;48.928;10.066;2023-06-10T16:04:50;28.00;64.40